createdAt,value
2017-06-19T00:01:32.101Z,17.60
2017-06-19T00:04:00.408Z,17.60
2017-06-19T00:06:27.959Z,17.60
2017-06-19T00:08:55.529Z,17.70
2017-06-19T00:11:23.069Z,17.60
2017-06-19T00:13:50.637Z,17.40
2017-06-19T00:16:18.173Z,17.40
2017-06-19T00:18:46.502Z,17.30
2017-06-19T00:21:19.624Z,17.30
2017-06-19T00:23:53.034Z,17.20
2017-06-19T00:26:21.337Z,17.00
2017-06-19T00:28:48.873Z,17.00
2017-06-19T00:31:16.438Z,17.00
2017-06-19T00:33:43.989Z,17.00
2017-06-19T00:36:12.322Z,17.00
2017-06-19T00:38:39.854Z,17.00
2017-06-19T00:41:07.414Z,17.10
2017-06-19T00:43:34.953Z,17.10
2017-06-19T00:46:02.529Z,17.20
2017-06-19T00:48:30.066Z,17.10
2017-06-19T00:50:57.602Z,17.00
2017-06-19T00:53:25.173Z,16.90
2017-06-19T00:55:52.713Z,16.90
2017-06-19T00:58:20.290Z,16.80
2017-06-19T01:00:48.628Z,16.80
2017-06-19T01:03:16.164Z,16.80
2017-06-19T01:05:43.702Z,16.90
2017-06-19T01:08:11.264Z,16.90
2017-06-19T01:10:38.803Z,16.80
2017-06-19T01:13:07.138Z,16.60
2017-06-19T01:15:34.681Z,16.60
2017-06-19T01:18:02.250Z,16.60
2017-06-19T01:20:29.792Z,16.60
2017-06-19T01:22:57.360Z,16.60
2017-06-19T01:25:24.904Z,16.50
2017-06-19T01:27:52.438Z,16.60
2017-06-19T01:30:20.018Z,16.50
2017-06-19T01:32:47.665Z,16.50
2017-06-19T01:35:15.317Z,16.40
2017-06-19T01:37:42.877Z,16.50
2017-06-19T01:40:10.433Z,16.40
2017-06-19T01:42:38.009Z,16.30
2017-06-19T01:45:05.569Z,16.40
2017-06-19T01:47:33.128Z,16.30
2017-06-19T01:50:00.656Z,16.40
2017-06-19T01:52:29.002Z,16.20
2017-06-19T01:54:56.538Z,16.20
2017-06-19T01:57:24.118Z,16.20
2017-06-19T01:59:51.703Z,16.20
2017-06-19T02:02:20.002Z,16.20
2017-06-19T02:04:47.542Z,16.20
2017-06-19T02:07:15.892Z,15.80
2017-06-19T02:09:43.426Z,15.80
2017-06-19T02:12:11.003Z,15.70
2017-06-19T02:14:38.545Z,15.70
2017-06-19T02:17:06.124Z,15.70
2017-06-19T02:19:33.666Z,15.80
2017-06-19T02:22:01.246Z,15.90
2017-06-19T02:24:28.791Z,15.80
2017-06-19T02:26:56.362Z,15.80
2017-06-19T02:29:23.892Z,15.70
2017-06-19T02:31:51.466Z,15.80
2017-06-19T02:34:19.010Z,15.90
2017-06-19T02:36:46.582Z,15.90
2017-06-19T02:39:14.157Z,15.90
2017-06-19T02:41:41.689Z,15.80
2017-06-19T02:44:09.260Z,15.60
2017-06-19T02:46:36.795Z,15.60
2017-06-19T02:49:04.361Z,15.60
2017-06-19T02:51:31.897Z,15.60
2017-06-19T02:53:59.470Z,15.50
2017-06-19T02:56:27.036Z,15.40
2017-06-19T02:58:54.579Z,15.40
2017-06-19T03:01:22.154Z,15.40
2017-06-19T03:03:49.728Z,15.40
2017-06-19T03:06:17.299Z,15.40
2017-06-19T03:08:44.842Z,15.30
2017-06-19T03:11:12.420Z,15.30
2017-06-19T03:13:39.976Z,15.20
2017-06-19T03:16:07.512Z,15.10
2017-06-19T03:18:35.094Z,15.10
2017-06-19T03:21:02.668Z,15.10
2017-06-19T03:23:30.200Z,15.20
2017-06-19T03:25:57.785Z,15.40
2017-06-19T03:28:25.318Z,15.40
2017-06-19T03:30:52.854Z,15.50
2017-06-19T03:33:20.421Z,15.50
2017-06-19T03:35:47.969Z,15.60
2017-06-19T03:38:15.534Z,15.40
2017-06-19T03:40:43.106Z,15.30
2017-06-19T03:43:10.646Z,15.30
2017-06-19T03:45:38.218Z,15.30
2017-06-19T03:48:05.762Z,15.30
2017-06-19T03:50:33.326Z,15.30
2017-06-19T03:53:00.861Z,15.10
2017-06-19T03:55:28.445Z,15.10
2017-06-19T03:57:56.002Z,15.10
2017-06-19T04:00:23.562Z,15.10
2017-06-19T04:02:51.137Z,15.10
2017-06-19T04:05:18.675Z,15.20
2017-06-19T04:07:46.241Z,15.10
2017-06-19T04:10:13.791Z,15.10
2017-06-19T04:12:41.364Z,15.10
2017-06-19T04:15:08.917Z,15.20
2017-06-19T04:17:36.529Z,15.20
2017-06-19T04:20:04.841Z,15.20
2017-06-19T04:22:32.387Z,15.20
2017-06-19T04:24:59.969Z,15.20
2017-06-19T04:27:27.515Z,15.30
2017-06-19T04:29:55.086Z,15.40
2017-06-19T04:32:22.627Z,15.50
2017-06-19T04:34:50.196Z,15.50
2017-06-19T04:37:17.751Z,15.50
2017-06-19T04:39:45.328Z,15.60
2017-06-19T04:42:12.877Z,15.60
2017-06-19T04:44:40.449Z,15.70
2017-06-19T04:47:08.004Z,15.80
2017-06-19T04:49:35.560Z,15.90
2017-06-19T04:52:03.130Z,16.00
2017-06-19T04:54:30.688Z,16.00
2017-06-19T04:56:58.281Z,16.00
2017-06-19T04:59:26.585Z,16.20
2017-06-19T05:01:54.160Z,16.20
2017-06-19T05:04:21.706Z,16.30
2017-06-19T05:06:49.247Z,16.40
2017-06-19T05:09:16.819Z,16.50
2017-06-19T05:11:44.385Z,16.60
2017-06-19T05:14:11.925Z,16.70
2017-06-19T05:16:39.508Z,16.80
2017-06-19T05:19:07.040Z,16.90
2017-06-19T05:21:34.614Z,16.90
2017-06-19T05:24:02.152Z,17.00
2017-06-19T05:26:30.497Z,17.20
2017-06-19T05:28:58.035Z,17.20
2017-06-19T05:31:25.573Z,17.20
2017-06-19T05:33:53.842Z,17.30
2017-06-19T05:36:21.400Z,17.50
2017-06-19T05:38:52.869Z,17.60
2017-06-19T05:41:20.410Z,17.60
2017-06-19T05:43:48.005Z,17.70
2017-06-19T05:46:19.572Z,17.80
2017-06-19T05:48:47.150Z,18.00
2017-06-19T05:51:14.706Z,18.20
2017-06-19T05:53:43.159Z,18.50
2017-06-19T05:56:11.122Z,18.40
2017-06-19T05:58:38.663Z,18.60
2017-06-19T06:01:06.211Z,18.70
2017-06-19T06:03:33.777Z,18.90
2017-06-19T06:06:01.357Z,18.90
2017-06-19T06:08:28.909Z,19.00
2017-06-19T06:10:56.482Z,19.40
2017-06-19T06:13:24.024Z,20.30
2017-06-19T06:15:51.594Z,21.30
2017-06-19T06:18:20.230Z,22.30
2017-06-19T06:20:47.801Z,23.20
2017-06-19T06:23:15.346Z,24.10
2017-06-19T06:25:42.929Z,24.90
2017-06-19T06:28:10.501Z,25.50
2017-06-19T06:30:39.874Z,25.90
2017-06-19T06:33:07.561Z,26.50
2017-06-19T06:35:35.141Z,27.00
2017-06-19T06:38:02.684Z,27.30
2017-06-19T06:40:30.223Z,27.80
2017-06-19T06:42:57.813Z,28.10
2017-06-19T06:45:25.357Z,28.40
2017-06-19T06:47:52.950Z,28.70
2017-06-19T06:50:21.262Z,29.10
2017-06-19T06:52:48.793Z,29.00
2017-06-19T06:55:17.134Z,29.20
2017-06-19T06:57:44.674Z,29.20
2017-06-19T07:00:12.556Z,29.40
2017-06-19T07:02:40.146Z,29.30
2017-06-19T07:05:07.673Z,29.30
2017-06-19T07:07:35.218Z,29.20
2017-06-19T07:10:02.815Z,28.90
2017-06-19T07:12:30.398Z,28.50
2017-06-19T07:14:58.709Z,28.30
2017-06-19T07:17:26.986Z,28.30
2017-06-19T07:19:54.557Z,28.60
2017-06-19T07:22:22.161Z,28.20
2017-06-19T07:24:50.470Z,27.80
2017-06-19T07:27:17.999Z,27.80
2017-06-19T07:29:46.332Z,27.80
2017-06-19T07:32:13.921Z,27.80
2017-06-19T07:34:42.217Z,28.10
2017-06-19T07:37:09.754Z,28.10
2017-06-19T07:39:37.343Z,28.10
2017-06-19T07:42:04.893Z,28.00
2017-06-19T07:44:33.248Z,27.90
2017-06-19T07:47:01.553Z,27.80
2017-06-19T07:49:29.365Z,27.80
2017-06-19T07:51:57.881Z,27.90
2017-06-19T07:54:26.220Z,27.50
2017-06-19T07:56:53.782Z,27.40
2017-06-19T07:59:21.317Z,27.70
2017-06-19T08:01:48.930Z,27.90
2017-06-19T08:04:17.242Z,28.10
2017-06-19T08:06:44.785Z,28.10
2017-06-19T08:09:12.369Z,28.30
2017-06-19T08:11:39.904Z,28.30
2017-06-19T08:14:07.455Z,28.50
2017-06-19T08:16:35.026Z,28.40
2017-06-19T08:19:02.570Z,28.20
2017-06-19T08:21:36.586Z,28.20
2017-06-19T08:24:04.125Z,28.20
2017-06-19T08:26:32.435Z,27.90
2017-06-19T08:29:00.241Z,27.90
2017-06-19T08:31:27.778Z,28.20
2017-06-19T08:33:55.322Z,28.20
2017-06-19T08:36:22.918Z,28.30
2017-06-19T08:38:51.210Z,28.20
2017-06-19T08:41:18.758Z,28.10
2017-06-19T08:43:46.346Z,28.10
2017-06-19T08:46:13.935Z,28.20
2017-06-19T08:48:41.489Z,28.30
2017-06-19T08:51:09.070Z,28.20
2017-06-19T08:53:37.102Z,28.20
2017-06-19T08:56:04.653Z,28.40
2017-06-19T08:58:32.994Z,28.30
2017-06-19T09:01:00.542Z,28.30
2017-06-19T09:03:28.121Z,28.60
2017-06-19T09:05:55.657Z,28.50
2017-06-19T09:08:23.271Z,28.60
2017-06-19T09:10:50.810Z,28.60
2017-06-19T09:13:19.112Z,28.30
2017-06-19T09:15:46.700Z,28.20
2017-06-19T09:18:14.579Z,28.20
2017-06-19T09:20:42.120Z,28.30
2017-06-19T09:23:09.681Z,28.20
2017-06-19T09:25:37.314Z,28.50
2017-06-19T09:28:04.850Z,28.40
2017-06-19T09:30:33.169Z,28.30
2017-06-19T09:33:00.761Z,28.30
2017-06-19T09:35:28.303Z,28.00
2017-06-19T09:37:55.874Z,27.90
2017-06-19T09:40:23.414Z,28.10
2017-06-19T09:42:50.999Z,28.00
2017-06-19T09:45:18.542Z,28.00
2017-06-19T09:47:46.114Z,28.10
2017-06-19T09:50:13.709Z,28.20
2017-06-19T09:52:41.259Z,28.10
2017-06-19T09:55:09.435Z,28.00
2017-06-19T09:57:37.746Z,28.20
2017-06-19T10:00:05.338Z,28.20
2017-06-19T10:02:32.917Z,28.30
2017-06-19T10:05:01.228Z,28.30
2017-06-19T10:07:28.820Z,28.30
2017-06-19T10:09:56.358Z,28.70
2017-06-19T10:12:23.903Z,28.80
2017-06-19T10:14:51.482Z,29.00
2017-06-19T10:17:19.021Z,29.10
2017-06-19T10:19:46.566Z,29.10
2017-06-19T10:22:14.521Z,28.80
2017-06-19T10:24:42.825Z,28.80
2017-06-19T10:27:10.366Z,28.80
2017-06-19T10:29:37.945Z,29.00
2017-06-19T10:32:05.518Z,29.00
2017-06-19T10:34:33.081Z,29.20
2017-06-19T10:37:00.655Z,29.20
2017-06-19T10:39:28.230Z,28.80
2017-06-19T10:41:55.821Z,28.70
2017-06-19T10:44:23.705Z,28.90
2017-06-19T10:46:51.251Z,29.20
2017-06-19T10:49:19.393Z,29.20
2017-06-19T10:51:47.727Z,29.10
2017-06-19T10:54:15.323Z,29.10
2017-06-19T10:56:44.759Z,29.20
2017-06-19T10:59:12.311Z,29.20
2017-06-19T11:01:39.911Z,29.30
2017-06-19T11:04:07.454Z,29.30
2017-06-19T11:06:34.999Z,29.60
2017-06-19T11:09:03.337Z,29.50
2017-06-19T11:11:32.170Z,29.60
2017-06-19T11:14:00.361Z,29.60
2017-06-19T11:16:28.638Z,29.70
2017-06-19T11:18:58.560Z,29.80
2017-06-19T11:21:26.132Z,29.80
2017-06-19T11:23:53.662Z,29.90
2017-06-19T11:26:21.330Z,29.70
2017-06-19T11:28:48.898Z,29.50
2017-06-19T11:31:16.469Z,29.50
2017-06-19T11:33:44.029Z,29.70
2017-06-19T11:36:11.605Z,29.70
2017-06-19T11:38:39.244Z,29.90
2017-06-19T11:41:06.791Z,30.10
2017-06-19T11:43:35.209Z,30.20
2017-06-19T11:46:03.559Z,29.90
2017-06-19T11:48:31.550Z,29.80
2017-06-19T11:50:59.134Z,29.90
2017-06-19T11:53:27.551Z,29.90
2017-06-19T11:55:55.106Z,30.10
2017-06-19T11:58:22.692Z,29.90
2017-06-19T12:00:50.286Z,29.90
2017-06-19T12:03:18.459Z,29.90
2017-06-19T12:05:47.250Z,30.00
2017-06-19T12:08:17.062Z,30.00
2017-06-19T12:10:44.602Z,30.20
2017-06-19T12:13:13.261Z,30.20
2017-06-19T12:15:40.794Z,30.20
2017-06-19T12:18:08.334Z,30.30
2017-06-19T12:20:35.906Z,30.30
2017-06-19T12:23:03.444Z,30.30
2017-06-19T12:25:31.015Z,30.40
2017-06-19T12:27:58.558Z,30.30
2017-06-19T12:30:26.153Z,30.10
2017-06-19T12:32:53.694Z,30.30
2017-06-19T12:35:21.235Z,30.30
2017-06-19T12:37:50.237Z,30.60
2017-06-19T12:40:17.815Z,30.80
2017-06-19T12:42:45.353Z,30.70
2017-06-19T12:45:12.915Z,30.70
2017-06-19T12:47:40.461Z,30.50
2017-06-19T12:50:08.033Z,30.60
2017-06-19T12:52:35.586Z,30.80
2017-06-19T12:55:03.172Z,30.80
2017-06-19T12:57:30.761Z,30.60
2017-06-19T12:59:59.133Z,30.60
2017-06-19T13:02:26.709Z,30.80
2017-06-19T13:04:55.014Z,31.00
2017-06-19T13:07:22.585Z,31.00
2017-06-19T13:09:50.127Z,30.90
2017-06-19T13:12:17.709Z,31.00
2017-06-19T13:14:46.011Z,30.80
2017-06-19T13:17:13.551Z,30.80
2017-06-19T13:19:41.126Z,30.60
2017-06-19T13:22:08.659Z,30.60
2017-06-19T13:24:36.245Z,30.50
2017-06-19T13:27:03.814Z,30.70
2017-06-19T13:29:31.393Z,30.80
2017-06-19T13:32:00.475Z,31.10
2017-06-19T13:34:28.033Z,31.10
2017-06-19T13:36:56.169Z,31.00
2017-06-19T13:39:23.712Z,30.90
2017-06-19T13:41:51.695Z,31.00
2017-06-19T13:44:19.580Z,31.20
2017-06-19T13:46:47.157Z,31.20
2017-06-19T13:49:14.699Z,31.10
2017-06-19T13:51:42.237Z,31.10
2017-06-19T13:54:09.817Z,31.20
2017-06-19T13:56:38.186Z,31.20
2017-06-19T13:59:06.593Z,31.40
2017-06-19T14:01:34.154Z,31.40
2017-06-19T14:04:01.774Z,31.40
2017-06-19T14:06:30.279Z,31.50
2017-06-19T14:08:59.218Z,31.30
2017-06-19T14:11:26.794Z,31.20
2017-06-19T14:13:54.340Z,31.40
2017-06-19T14:16:21.933Z,31.40
2017-06-19T14:18:49.520Z,31.50
2017-06-19T14:21:17.505Z,31.60
2017-06-19T14:23:45.045Z,31.70
2017-06-19T14:26:16.864Z,31.40
2017-06-19T14:28:47.154Z,31.10
2017-06-19T14:31:39.637Z,31.10
2017-06-19T14:34:18.106Z,31.10
2017-06-19T14:36:49.549Z,31.00
2017-06-19T14:39:24.531Z,31.20
2017-06-19T14:41:56.494Z,31.10
2017-06-19T14:44:25.354Z,31.20
2017-06-19T14:49:37.231Z,31.10
2017-06-19T14:52:07.273Z,31.20
2017-06-19T14:54:47.619Z,31.20
2017-06-19T14:57:15.924Z,31.40
2017-06-19T14:59:46.589Z,31.30
2017-06-19T15:02:14.181Z,31.40
2017-06-19T15:04:44.057Z,31.40
2017-06-19T15:07:12.793Z,31.40
2017-06-19T15:12:17.435Z,31.20
2017-06-19T15:14:46.062Z,31.30
2017-06-19T15:17:14.698Z,31.40
2017-06-19T15:19:42.329Z,31.50
2017-06-19T15:22:16.544Z,31.50
2017-06-19T15:24:44.893Z,31.50
2017-06-19T15:27:20.097Z,31.50
2017-06-19T15:29:47.641Z,31.50
2017-06-19T15:32:16.492Z,31.40
2017-06-19T15:34:44.021Z,31.30
2017-06-19T15:37:12.310Z,31.20
2017-06-19T15:39:39.890Z,31.10
2017-06-19T15:42:07.432Z,31.10
2017-06-19T15:44:36.416Z,31.00
2017-06-19T15:47:03.970Z,31.00
2017-06-19T15:49:31.510Z,31.10
2017-06-19T15:51:59.134Z,31.30
2017-06-19T15:54:28.376Z,31.20
2017-06-19T15:56:56.335Z,31.20
2017-06-19T15:59:24.857Z,31.20
2017-06-19T16:01:52.711Z,31.10
2017-06-19T16:04:20.885Z,31.00
2017-06-19T16:06:50.657Z,30.90
2017-06-19T16:09:18.247Z,30.80
2017-06-19T16:11:47.877Z,31.00
2017-06-19T16:14:15.466Z,31.00
2017-06-19T16:16:46.950Z,30.90
2017-06-19T16:19:14.497Z,30.90
2017-06-19T16:21:42.095Z,30.80
2017-06-19T16:24:09.700Z,31.00
2017-06-19T16:26:38.007Z,30.70
2017-06-19T16:29:05.554Z,30.70
2017-06-19T16:31:33.120Z,30.80
2017-06-19T16:34:00.682Z,30.90
2017-06-19T16:36:28.228Z,30.80
2017-06-19T16:38:55.798Z,30.80
2017-06-19T16:41:27.564Z,30.80
2017-06-19T16:43:56.228Z,30.70
2017-06-19T16:46:23.818Z,30.80
2017-06-19T16:48:51.726Z,30.80
2017-06-19T16:51:20.704Z,30.90
2017-06-19T16:53:50.017Z,30.90
2017-06-19T16:56:18.348Z,30.80
2017-06-19T16:58:45.885Z,30.80
2017-06-19T17:01:13.471Z,30.80
2017-06-19T17:03:41.005Z,30.70
2017-06-19T17:06:08.582Z,30.60
2017-06-19T17:08:36.224Z,30.60
2017-06-19T17:11:03.836Z,30.60
2017-06-19T17:13:31.398Z,30.60
2017-06-19T17:15:59.358Z,30.60
2017-06-19T17:18:27.637Z,30.50
2017-06-19T17:20:56.323Z,30.50
2017-06-19T17:23:25.737Z,30.50
2017-06-19T17:25:53.325Z,30.30
2017-06-19T17:28:20.878Z,30.10
2017-06-19T17:30:48.527Z,30.10
2017-06-19T17:33:16.811Z,30.10
2017-06-19T17:35:45.863Z,30.10
2017-06-19T17:38:13.469Z,30.10
2017-06-19T17:40:41.054Z,29.90
2017-06-19T17:43:08.600Z,29.90
2017-06-19T17:45:36.147Z,29.80
2017-06-19T17:48:03.726Z,29.80
2017-06-19T17:50:31.272Z,29.60
2017-06-19T17:52:58.816Z,29.50
2017-06-19T17:55:26.390Z,29.60
2017-06-19T17:57:53.947Z,29.50
2017-06-19T18:00:21.569Z,29.50
2017-06-19T18:02:49.119Z,29.50
2017-06-19T18:05:16.679Z,29.50
2017-06-19T18:10:39.193Z,29.50
2017-06-19T18:13:06.775Z,29.40
2017-06-19T18:15:34.833Z,29.30
2017-06-19T18:18:02.381Z,29.20
2017-06-19T18:20:30.798Z,29.10
2017-06-19T18:22:58.354Z,29.00
2017-06-19T18:25:25.938Z,28.90
2017-06-19T18:28:09.160Z,28.80
2017-06-19T18:30:38.088Z,28.70
2017-06-19T18:33:06.547Z,28.70
2017-06-19T18:35:34.258Z,28.60
2017-06-19T18:38:01.932Z,28.60
2017-06-19T18:40:30.381Z,28.40
2017-06-19T18:42:57.917Z,28.40
2017-06-19T18:45:25.494Z,28.40
2017-06-19T18:47:54.249Z,28.30
2017-06-19T18:50:22.606Z,28.20
2017-06-19T18:52:50.964Z,28.30
2017-06-19T18:55:19.276Z,28.10
2017-06-19T18:57:46.885Z,28.10
2017-06-19T19:00:14.433Z,28.00
2017-06-19T19:02:41.996Z,27.80
2017-06-19T19:05:09.604Z,27.60
2017-06-19T19:07:37.166Z,27.50
2017-06-19T19:10:04.714Z,27.20
2017-06-19T19:12:33.148Z,27.00
2017-06-19T19:15:00.714Z,26.80
2017-06-19T19:17:28.326Z,26.70
2017-06-19T19:19:55.881Z,26.50
2017-06-19T19:22:23.429Z,26.40
2017-06-19T19:24:51.792Z,26.20
2017-06-19T19:27:21.075Z,26.00
2017-06-19T19:29:48.735Z,26.00
2017-06-19T19:32:16.290Z,25.80
2017-06-19T19:34:43.869Z,25.80
2017-06-19T19:37:11.462Z,25.80
2017-06-19T19:39:39.024Z,25.70
2017-06-19T19:42:06.723Z,25.70
2017-06-19T19:44:34.286Z,25.60
2017-06-19T19:47:02.059Z,25.50
2017-06-19T19:49:29.652Z,25.40
2017-06-19T19:51:58.773Z,25.20
2017-06-19T19:54:26.383Z,25.20
2017-06-19T19:56:53.949Z,25.20
2017-06-19T19:59:21.507Z,25.10
2017-06-19T20:01:49.770Z,25.00
2017-06-19T20:04:17.358Z,25.00
2017-06-19T20:06:45.721Z,24.70
2017-06-19T20:09:13.274Z,24.70
2017-06-19T20:11:40.867Z,24.70
2017-06-19T20:14:09.201Z,24.60
2017-06-19T20:16:37.644Z,24.50
2017-06-19T20:19:05.205Z,24.50
2017-06-19T20:21:33.116Z,24.40
2017-06-19T20:24:00.708Z,24.30
2017-06-19T20:26:29.034Z,24.20
2017-06-19T20:28:56.628Z,24.10
2017-06-19T20:31:24.190Z,24.10
2017-06-19T20:33:51.829Z,24.10
2017-06-19T20:36:19.405Z,24.10
2017-06-19T20:38:46.969Z,24.00
2017-06-19T20:41:14.561Z,24.00
2017-06-19T20:43:42.904Z,23.80
2017-06-19T20:46:10.497Z,23.80
2017-06-19T20:48:38.420Z,23.70
2017-06-19T20:51:05.967Z,23.60
2017-06-19T20:53:33.532Z,23.60
2017-06-19T20:56:01.183Z,23.40
2017-06-19T20:58:28.779Z,23.40
2017-06-19T21:00:56.344Z,23.30
2017-06-19T21:03:23.977Z,23.40
2017-06-19T21:05:51.570Z,23.30
2017-06-19T21:08:19.897Z,23.20
2017-06-19T21:10:47.475Z,23.20
2017-06-19T21:13:15.848Z,23.20
2017-06-19T21:15:43.465Z,23.10
2017-06-19T21:18:12.234Z,23.00
2017-06-19T21:20:39.796Z,23.00
2017-06-19T21:23:07.479Z,23.00
2017-06-19T21:25:35.044Z,23.00
2017-06-19T21:28:02.838Z,22.90
2017-06-19T21:30:30.438Z,22.90
2017-06-19T21:32:58.001Z,22.80
2017-06-19T21:35:25.593Z,22.70
2017-06-19T21:37:53.665Z,22.70
2017-06-19T21:40:21.259Z,22.60
2017-06-19T21:42:48.837Z,22.60
2017-06-19T21:45:16.445Z,22.50
2017-06-19T21:47:44.057Z,22.40
2017-06-19T21:50:11.617Z,22.20
2017-06-19T21:52:39.178Z,22.10
2017-06-19T21:55:06.772Z,22.00
2017-06-19T21:57:35.098Z,21.80
2017-06-19T22:00:02.723Z,21.80
2017-06-19T22:02:30.288Z,21.80
2017-06-19T22:04:57.840Z,21.70
2017-06-19T22:07:25.410Z,21.70
2017-06-19T22:09:52.958Z,21.50
2017-06-19T22:12:20.550Z,21.40
2017-06-19T22:14:48.098Z,21.40
2017-06-19T22:17:15.646Z,21.40
2017-06-19T22:19:43.253Z,21.30
2017-06-19T22:22:16.397Z,21.10
2017-06-19T22:24:43.991Z,21.00
2017-06-19T22:27:11.612Z,20.90
2017-06-19T22:29:39.189Z,20.70
2017-06-19T22:32:06.769Z,20.70
2017-06-19T22:34:34.363Z,20.60
2017-06-19T22:37:02.688Z,20.60
2017-06-19T22:39:31.116Z,20.60
2017-06-19T22:41:58.670Z,20.60
2017-06-19T22:44:26.232Z,20.70
2017-06-19T22:46:53.810Z,20.70
2017-06-19T22:49:22.140Z,20.50
2017-06-19T22:51:49.731Z,20.50
2017-06-19T22:54:17.294Z,20.30
2017-06-19T22:56:44.902Z,20.30
2017-06-19T22:59:12.464Z,20.30
2017-06-19T23:01:40.016Z,20.10
2017-06-19T23:04:07.604Z,20.10
2017-06-19T23:06:35.152Z,20.20
2017-06-19T23:09:02.762Z,20.30
2017-06-19T23:11:30.324Z,20.20
2017-06-19T23:13:57.889Z,20.20
2017-06-19T23:16:26.244Z,19.90
2017-06-19T23:18:53.822Z,19.80
2017-06-19T23:21:21.438Z,19.70
2017-06-19T23:23:48.992Z,19.70
2017-06-19T23:26:16.569Z,19.60
2017-06-19T23:28:44.118Z,19.60
2017-06-19T23:31:11.725Z,19.50
2017-06-19T23:33:40.075Z,19.60
2017-06-19T23:36:07.632Z,19.60
2017-06-19T23:38:36.127Z,19.60
2017-06-19T23:41:04.556Z,19.60
2017-06-19T23:43:32.149Z,19.60
2017-06-19T23:45:59.728Z,19.50
2017-06-19T23:48:27.275Z,19.60
2017-06-19T23:50:54.853Z,19.50
2017-06-19T23:53:22.445Z,19.50
2017-06-19T23:55:50.039Z,19.40
2017-06-19T23:58:17.601Z,19.40
